This is the latest recevied weather packets stored in our database for station/object YD2APR-13. If no packets are shown the sender has not sent any weather packets the latest 10 day(s).
| Time | Temp. | Humidity | Pressure | Rain* | Wind** | Luminosity | Snow |
|---|---|---|---|---|---|---|---|
| 1778035538 | 30° C | 61% | 1016.3 hPa | - | - | - | - |
| 1778034938 | 30.56° C | 60% | 1016.2 hPa | - | - | - | - |
| 1778034338 | 29.44° C | 63% | 1016.3 hPa | - | - | - | - |
| 1778033738 | 28.33° C | 66% | 1016.4 hPa | - | - | - | - |
| 1778033138 | 28.33° C | 67% | 1016.4 hPa | - | - | - | - |
| 1778032538 | 29.44° C | 65% | 1016.4 hPa | - | - | - | - |
| 1778031938 | 28.89° C | 65% | 1016.4 hPa | - | - | - | - |
| 1778031338 | 28.89° C | 65% | 1016.4 hPa | - | - | - | - |
| 1778030738 | 28.89° C | 66% | 1016.4 hPa | - | - | - | - |
| 1778030138 | 28.33° C | 69% | 1016.3 hPa | - | - | - | - |
| 1778029538 | 27.78° C | 71% | 1016.3 hPa | - | - | - | - |
| 1778028938 | 27.22° C | 73% | 1016.2 hPa | - | - | - | - |
| 1778028338 | 26.67° C | 74% | 1016.2 hPa | - | - | - | - |
| 1778027738 | 26.11° C | 76% | 1016 hPa | - | - | - | - |
| 1778027137 | 26.11° C | 77% | 1015.9 hPa | - | - | - | - |
| 1778026538 | 26.11° C | 78% | 1015.9 hPa | - | - | - | - |
| 1778025938 | 25.56° C | 82% | 1015.8 hPa | - | - | - | - |
| 1778025338 | 24.44° C | 83% | 1015.7 hPa | - | - | - | - |
| 1778024738 | 23.89° C | 85% | 1015.6 hPa | - | - | - | - |
| 1778024137 | 23.89° C | 86% | 1015.6 hPa | - | - | - | - |
| 1778023537 | 23.33° C | 87% | 1015.6 hPa | - | - | - | - |
| 1778022937 | 23.33° C | 88% | 1015.6 hPa | - | - | - | - |
| 1778022338 | 23.33° C | 88% | 1015.4 hPa | - | - | - | - |
| 1778021737 | 23.33° C | 88% | 1015.2 hPa | - | - | - | - |
| 1778021138 | 23.33° C | 88% | 1015.2 hPa | - | - | - | - |
* Rain since midnight (hover to see other rain measurements)
** Current wind speed in m/s (hover to see current wind gust speed)